Time;durP1;ratioP1;P1;durP2;ratioP2;P2;SDS_P1;SDS_P2;PMS_P1;PMS_P2;Temp;Humidity;BMP_temperature;BMP_pressure;BME280_temperature;BME280_humidity;BME280_pressure;Samples;Min_cycle;Max_cycle;Signal;HPM_P1;HPM_P2
2022/11/26 06:57:03;;;;;;;6.90;2.90;;;;;;;;;;10504748;28;20447;-83
2022/11/26 07:02:04;;;;;;;7.10;2.90;;;;;;;;;;10504401;28;20119;-84
2022/11/26 07:07:08;;;;;;;6.72;3.13;;;;;;;;;;10503377;28;20040;-84
2022/11/26 07:12:10;;;;;;;7.30;3.10;;;;;;;;;;10507154;28;20099;-84
2022/11/26 07:17:17;;;;;;;7.72;3.13;;;;;;;;;;10502612;28;20390;-84
2022/11/26 07:22:42;;;;;;;4.82;2.70;;;;;;;;;;10504423;28;20036;-84
2022/11/26 07:27:44;;;;;;;6.65;3.05;;;;;;;;;;10503566;28;20025;-84
2022/11/26 07:33:04;;;;;;;4.68;2.60;;;;;;;;;;10510067;28;20035;-84
2022/11/26 07:38:05;;;;;;;;;;;;;;;;;;10508594;28;20041;-85
2022/11/26 07:43:06;;;;;;;6.85;3.53;;;;;;;;;;10504448;28;19908;-84
2022/11/26 07:48:07;;;;;;;5.57;3.00;;;;;;;;;;10503840;28;20108;-84
2022/11/26 07:53:08;;;;;;;5.13;2.90;;;;;;;;;;10525655;28;20036;-83
2022/11/26 07:58:09;;;;;;;5.32;2.63;;;;;;;;;;10513525;28;20035;-83
2022/11/26 08:03:19;;;;;;;4.35;2.10;;;;;;;;;;10500766;28;20025;-81
2022/11/26 08:08:20;;;;;;;6.82;3.65;;;;;;;;;;10479292;28;20118;-83
2022/11/26 08:13:21;;;;;;;10.40;5.25;;;;;;;;;;10474515;28;20483;-81
2022/11/26 08:18:22;;;;;;;11.40;4.60;;;;;;;;;;10472797;28;20040;-80
2022/11/26 08:23:28;;;;;;;7.75;4.20;;;;;;;;;;10475270;28;20025;-81
2022/11/26 08:28:30;;;;;;;10.07;4.78;;;;;;;;;;10473953;28;20025;-80
2022/11/26 08:33:31;;;;;;;7.05;4.35;;;;;;;;;;10470949;28;20119;-79
2022/11/26 08:38:32;;;;;;;8.32;4.50;;;;;;;;;;10472167;28;20053;-80
2022/11/26 08:43:36;;;;;;;8.85;4.35;;;;;;;;;;10470239;28;20033;-80
2022/11/26 08:48:38;;;;;;;9.65;4.45;;;;;;;;;;10471026;28;20146;-80
2022/11/26 08:53:39;;;;;;;8.95;4.43;;;;;;;;;;10469027;28;20557;-80
2022/11/26 08:58:41;;;;;;;11.55;4.78;;;;;;;;;;10468945;28;20033;-81
2022/11/26 09:03:43;;;;;;;9.10;4.63;;;;;;;;;;10475058;28;20031;-79
2022/11/26 09:14:07;;;;;;;7.72;4.35;;;;;;;;;;10476614;28;20037;-81
2022/11/26 09:19:08;;;;;;;8.13;4.65;;;;;;;;;;10471614;28;20359;-81
2022/11/26 09:24:09;;;;;;;9.32;4.70;;;;;;;;;;10476333;28;20025;-80
2022/11/26 09:29:14;;;;;;;7.90;4.85;;;;;;;;;;10470851;28;20029;-80
2022/11/26 09:34:15;;;;;;;7.35;4.43;;;;;;;;;;10467681;28;20021;-83
2022/11/26 09:39:17;;;;;;;8.30;4.93;;;;;;;;;;10468929;28;20029;-81
2022/11/26 09:44:18;;;;;;;9.70;4.95;;;;;;;;;;10468243;28;20479;-83
2022/11/26 09:49:19;;;;;;;11.90;5.10;;;;;;;;;;10466470;28;20029;-83
2022/11/26 09:54:24;;;;;;;8.23;4.85;;;;;;;;;;10466553;28;20051;-81
2022/11/26 09:59:26;;;;;;;9.90;4.60;;;;;;;;;;10464225;28;20116;-82
2022/11/26 10:04:31;;;;;;;10.65;4.82;;;;;;;;;;10465199;28;20040;-83
2022/11/26 10:09:42;;;;;;;10.25;4.90;;;;;;;;;;10478992;28;20047;-81
2022/11/26 10:14:46;;;;;;;9.10;4.20;;;;;;;;;;10480806;28;20082;-82
2022/11/26 10:19:50;;;;;;;12.57;5.60;;;;;;;;;;10465062;28;20029;-81
2022/11/26 10:24:51;;;;;;;9.27;4.50;;;;;;;;;;10465961;28;20044;-81
2022/11/26 10:29:56;;;;;;;11.63;5.07;;;;;;;;;;10463169;28;20017;-82
2022/11/26 10:34:57;;;;;;;12.95;6.43;;;;;;;;;;10461898;28;20021;-83
2022/11/26 10:39:58;;;;;;;11.43;3.80;;;;;;;;;;10475198;22;20032;31
2022/11/26 10:44:59;;;;;;;;;;;;;;;;;;10343934;28;20049;-81
2022/11/26 10:50:00;;;;;;;8.40;3.90;;;;;;;;;;10348019;28;19906;-82
2022/11/26 10:55:30;;;;;;;8.73;3.40;;;;;;;;;;10349563;28;20106;-83
2022/11/26 11:00:35;;;;;;;8.05;3.35;;;;;;;;;;10354326;28;20074;-83
2022/11/26 11:05:36;;;;;;;8.43;3.85;;;;;;;;;;10354427;28;20022;-83
2022/11/26 11:10:51;;;;;;;7.78;3.22;;;;;;;;;;10348056;28;20022;-82
2022/11/26 11:16:00;;;;;;;7.70;3.33;;;;;;;;;;10349040;28;20036;-82
2022/11/26 11:21:02;;;;;;;7.15;3.15;;;;;;;;;;10348083;28;20026;-81
2022/11/26 11:26:14;;;;;;;6.97;2.97;;;;;;;;;;10351579;28;20077;-82
2022/11/26 11:31:18;;;;;;;6.50;2.92;;;;;;;;;;10348432;28;20457;-82
2022/11/26 11:36:29;;;;;;;7.78;3.45;;;;;;;;;;10355888;28;20030;-81
2022/11/26 11:41:52;;;;;;;9.57;3.35;;;;;;;;;;10365821;28;20038;-81
2022/11/26 11:47:24;;;;;;;10.95;4.95;;;;;;;;;;10372144;28;20026;-81
2022/11/26 11:52:28;;;;;;;9.35;3.33;;;;;;;;;;10366259;28;20030;-82
2022/11/26 11:57:56;;;;;;;10.82;3.20;;;;;;;;;;10368725;28;20019;-82
2022/11/26 12:03:20;;;;;;;7.07;3.33;;;;;;;;;;10365774;28;20038;-82
2022/11/26 12:08:22;;;;;;;10.32;3.60;;;;;;;;;;10368887;28;20022;-83
2022/11/26 12:19:53;;;;;;;7.35;3.22;;;;;;;;;;10366368;28;20022;-85
2022/11/26 12:24:58;;;;;;;7.95;4.10;;;;;;;;;;10363277;28;20030;-82
2022/11/26 12:30:16;;;;;;;8.30;2.80;;;;;;;;;;10362374;28;20030;-82
2022/11/26 12:35:30;;;;;;;9.60;3.08;;;;;;;;;;10359139;28;20053;-81
2022/11/26 12:40:45;;;;;;;7.13;2.75;;;;;;;;;;10357404;28;20080;-81
2022/11/26 12:45:46;;;;;;;6.25;2.63;;;;;;;;;;10357830;28;20105;-83
2022/11/26 12:50:53;;;;;;;8.57;3.22;;;;;;;;;;10358719;28;20090;-81
2022/11/26 12:56:00;;;;;;;7.88;2.83;;;;;;;;;;10359891;28;20113;-84
2022/11/26 13:01:03;;;;;;;12.32;3.08;;;;;;;;;;10361533;28;20022;-83
2022/11/26 13:06:40;;;;;;;8.80;3.55;;;;;;;;;;10362045;28;20026;-83
2022/11/26 13:11:50;;;;;;;6.30;2.65;;;;;;;;;;10298038;28;20069;-82
2022/11/26 13:16:57;;;;;;;9.68;2.90;;;;;;;;;;10365335;28;20022;-83
2022/11/26 13:22:17;;;;;;;7.43;2.33;;;;;;;;;;10354773;28;20485;-83
2022/11/26 13:27:48;;;;;;;9.70;3.35;;;;;;;;;;10358134;28;20034;-84
2022/11/26 13:32:49;;;;;;;;;;;;;;;;;;10351809;28;20034;-83
2022/11/26 13:38:18;;;;;;;6.97;2.50;;;;;;;;;;10353842;28;19913;-83
2022/11/26 13:43:38;;;;;;;8.13;2.63;;;;;;;;;;10351467;28;20038;-84
2022/11/26 13:48:49;;;;;;;5.63;1.90;;;;;;;;;;10348762;28;20114;-84
2022/11/26 13:54:16;;;;;;;7.32;2.88;;;;;;;;;;10347402;28;20499;-83
2022/11/26 13:59:19;;;;;;;8.13;2.90;;;;;;;;;;10345557;28;20030;-83
2022/11/26 14:04:23;;;;;;;8.73;3.20;;;;;;;;;;10345912;28;20166;-83
2022/11/26 14:09:43;;;;;;;11.40;5.13;;;;;;;;;;10345782;28;20050;-82
2022/11/26 14:14:51;;;;;;;9.27;4.30;;;;;;;;;;10345706;28;20033;-82
2022/11/26 14:19:55;;;;;;;8.98;2.90;;;;;;;;;;10348312;28;20030;-84
2022/11/26 14:25:01;;;;;;;7.28;2.55;;;;;;;;;;10343896;28;20029;-83
2022/11/26 14:30:08;;;;;;;6.35;2.30;;;;;;;;;;10345695;28;20023;-83
2022/11/26 14:35:25;;;;;;;5.47;2.50;;;;;;;;;;10343342;28;20047;-83
2022/11/26 14:40:27;;;;;;;7.38;2.65;;;;;;;;;;10342647;28;20030;-83
2022/11/26 14:45:30;;;;;;;11.70;3.75;;;;;;;;;;10343842;28;20058;-85
2022/11/26 14:50:33;;;;;;;8.00;2.53;;;;;;;;;;10335484;28;20015;-84
2022/11/26 14:55:38;;;;;;;7.40;2.50;;;;;;;;;;10360783;28;20041;-83
2022/11/26 15:00:39;;;;;;;4.57;2.15;;;;;;;;;;10381819;28;20105;-82
2022/11/26 15:05:43;;;;;;;9.65;3.10;;;;;;;;;;10381978;28;20042;-81
2022/11/26 15:10:49;;;;;;;5.40;2.30;;;;;;;;;;10379157;28;20086;-82
2022/11/26 15:15:57;;;;;;;8.00;2.85;;;;;;;;;;10351597;28;20030;-81
2022/11/26 15:21:02;;;;;;;5.93;2.10;;;;;;;;;;10360108;28;20041;-81
2022/11/26 15:26:04;;;;;;;7.60;2.70;;;;;;;;;;10358154;28;20488;-81
2022/11/26 15:36:18;;;;;;;;;;;;;;;;;;11527725;23;19922;-80
2022/11/26 15:41:19;;;;;;;5.45;2.00;;;;;;;;;;10464854;22;20409;-81
2022/11/26 16:09:49;;;;;;;6.47;2.88;;;;;;;;;;10311191;28;20023;-79
2022/11/26 16:14:50;;;;;;;3.80;2.10;;;;;;;;;;10305780;28;20133;-80
2022/11/26 16:19:52;;;;;;;6.18;2.50;;;;;;;;;;10311684;28;20041;-82
2022/11/26 16:25:07;;;;;;;6.22;2.60;;;;;;;;;;10311670;28;20041;-85
2022/11/26 16:30:15;;;;;;;6.88;2.58;;;;;;;;;;10313831;28;20023;-86
2022/11/26 16:35:44;;;;;;;7.90;3.20;;;;;;;;;;10319105;28;20031;-87
2022/11/26 16:41:05;;;;;;;5.85;2.72;;;;;;;;;;10265698;23;20050;-84
2022/11/26 16:46:22;;;;;;;7.68;2.83;;;;;;;;;;10313206;28;20149;-84
2022/11/26 16:51:23;;;;;;;9.07;3.70;;;;;;;;;;10312343;28;20023;-83
2022/11/26 16:56:26;;;;;;;5.75;2.28;;;;;;;;;;10314017;28;20031;-83
2022/11/26 17:01:27;;;;;;;4.53;2.30;;;;;;;;;;10313829;28;20031;-84
2022/11/26 17:06:30;;;;;;;6.00;2.80;;;;;;;;;;10314623;28;20188;-84
2022/11/26 17:11:31;;;;;;;4.78;2.20;;;;;;;;;;10313357;28;20178;-84
2022/11/26 17:16:32;;;;;;;4.85;2.65;;;;;;;;;;10325877;28;20098;-83
2022/11/26 17:21:33;;;;;;;5.85;2.58;;;;;;;;;;10326757;28;20027;-83
2022/11/26 17:26:34;;;;;;;5.68;2.83;;;;;;;;;;10311564;28;20548;-84
2022/11/26 17:31:36;;;;;;;4.18;2.42;;;;;;;;;;10309302;28;20027;-83
2022/11/26 17:36:37;;;;;;;5.53;3.00;;;;;;;;;;10308362;28;20042;-84
2022/11/26 17:41:38;;;;;;;7.15;3.85;;;;;;;;;;10312537;28;20498;-83
2022/11/26 17:46:39;;;;;;;5.72;2.72;;;;;;;;;;10310694;28;20131;-83
2022/11/26 17:51:41;;;;;;;4.78;2.45;;;;;;;;;;10310296;28;20027;-84
2022/11/26 17:56:49;;;;;;;6.70;3.17;;;;;;;;;;10312413;28;20030;-84
2022/11/26 18:01:52;;;;;;;4.57;2.80;;;;;;;;;;10311808;28;20027;-84
2022/11/26 18:06:56;;;;;;;4.40;2.70;;;;;;;;;;10312878;28;20548;-83
2022/11/26 18:11:57;;;;;;;6.20;2.85;;;;;;;;;;10338266;28;20022;-82
2022/11/26 18:17:01;;;;;;;5.25;2.60;;;;;;;;;;10330541;28;20042;-83
2022/11/26 18:22:02;;;;;;;5.00;2.72;;;;;;;;;;10299264;28;20035;-83
2022/11/26 18:27:05;;;;;;;5.07;2.50;;;;;;;;;;10317784;28;20034;-82
2022/11/26 18:32:06;;;;;;;4.72;2.58;;;;;;;;;;10331707;28;20017;-84
2022/11/26 18:37:07;;;;;;;4.32;2.67;;;;;;;;;;10339148;28;20030;-83
2022/11/26 18:42:08;;;;;;;5.90;2.70;;;;;;;;;;10343533;28;20064;-84
2022/11/26 18:47:22;;;;;;;3.50;2.05;;;;;;;;;;10343718;28;20031;-81
2022/11/26 18:52:23;;;;;;;4.80;2.58;;;;;;;;;;10304472;28;20130;-83
2022/11/26 18:57:25;;;;;;;5.47;2.50;;;;;;;;;;10304872;28;20027;-82
2022/11/26 19:02:26;;;;;;;5.90;2.55;;;;;;;;;;10307681;28;20047;-83
2022/11/26 19:07:27;;;;;;;5.40;2.58;;;;;;;;;;10307543;28;20512;-82
2022/11/26 19:12:28;;;;;;;2.92;2.20;;;;;;;;;;10303735;28;20027;-83
2022/11/26 19:17:29;;;;;;;4.97;2.85;;;;;;;;;;10309127;28;20057;-83
2022/11/26 19:22:31;;;;;;;4.68;2.83;;;;;;;;;;10315778;28;20027;-84
2022/11/26 19:27:32;;;;;;;4.28;3.13;;;;;;;;;;10323501;28;20505;-84
2022/11/26 19:32:33;;;;;;;4.03;2.50;;;;;;;;;;10327958;28;20015;-83
2022/11/26 19:37:34;;;;;;;4.70;2.92;;;;;;;;;;10327307;28;20022;-82
2022/11/26 19:42:35;;;;;;;5.70;2.72;;;;;;;;;;10299564;28;20413;-84
2022/11/26 19:47:36;;;;;;;4.15;2.58;;;;;;;;;;10321159;28;20039;-83
2022/11/26 19:52:37;;;;;;;3.65;2.67;;;;;;;;;;10323431;28;20042;-84
2022/11/26 19:57:39;;;;;;;4.80;2.80;;;;;;;;;;10324382;28;20094;-83
2022/11/26 20:02:40;;;;;;;4.68;2.83;;;;;;;;;;10326100;28;20137;-83
2022/11/26 20:07:44;;;;;;;5.53;3.10;;;;;;;;;;10311600;28;20019;-83
2022/11/26 20:12:45;;;;;;;3.88;2.35;;;;;;;;;;10323556;28;20027;-84
2022/11/26 20:17:46;;;;;;;4.20;2.70;;;;;;;;;;10326363;28;20037;-83
